createdAt,value
2018-05-16T00:00:54.749Z,21.53
2018-05-16T00:03:23.012Z,22.97
2018-05-16T00:05:51.292Z,22.00
2018-05-16T00:08:19.561Z,20.10
2018-05-16T00:10:47.845Z,22.27
2018-05-16T00:13:16.113Z,21.20
2018-05-16T00:15:44.425Z,21.70
2018-05-16T00:18:11.929Z,21.53
2018-05-16T00:20:39.433Z,21.57
2018-05-16T00:23:06.957Z,22.50
2018-05-16T00:25:35.229Z,21.60
2018-05-16T00:28:03.513Z,23.37
2018-05-16T00:30:31.781Z,23.83
2018-05-16T00:33:00.065Z,21.60
2018-05-16T00:35:28.338Z,22.57
2018-05-16T00:37:56.683Z,21.17
2018-05-16T00:40:24.181Z,22.93
2018-05-16T00:42:52.461Z,22.70
2018-05-16T00:45:20.729Z,22.90
2018-05-16T00:47:49.007Z,23.33
2018-05-16T00:50:17.269Z,22.57
2018-05-16T00:52:45.544Z,21.13
2018-05-16T00:55:13.817Z,22.47
2018-05-16T00:57:41.334Z,21.63
2018-05-16T01:00:08.840Z,23.40
2018-05-16T01:02:37.865Z,22.20
2018-05-16T01:05:05.360Z,23.50
2018-05-16T01:07:32.867Z,23.57
2018-05-16T01:10:01.128Z,21.83
2018-05-16T01:12:29.408Z,23.20
2018-05-16T01:14:57.708Z,22.63
2018-05-16T01:17:25.980Z,22.97
2018-05-16T01:19:54.253Z,20.90
2018-05-16T01:22:22.537Z,21.63
2018-05-16T01:24:50.033Z,22.40
2018-05-16T01:27:17.549Z,22.60
2018-05-16T01:29:45.812Z,21.67
2018-05-16T01:32:14.089Z,22.97
2018-05-16T01:34:42.381Z,22.63
2018-05-16T01:37:09.945Z,22.50
2018-05-16T01:39:37.455Z,22.53
2018-05-16T01:42:05.057Z,21.97
2018-05-16T01:44:32.561Z,21.43
2018-05-16T01:47:00.081Z,22.20
2018-05-16T01:49:27.580Z,22.80
2018-05-16T01:51:55.099Z,21.53
2018-05-16T01:54:22.657Z,22.90
2018-05-16T01:56:50.169Z,23.27
2018-05-16T01:59:17.764Z,23.40
2018-05-16T02:01:46.043Z,22.90
2018-05-16T02:04:13.544Z,22.77
2018-05-16T02:06:41.165Z,23.70
2018-05-16T02:09:08.667Z,22.20
2018-05-16T02:11:36.164Z,23.47
2018-05-16T02:14:04.444Z,22.20
2018-05-16T02:16:32.704Z,21.20
2018-05-16T02:19:01.008Z,23.33
2018-05-16T02:21:28.520Z,22.27
2018-05-16T02:23:56.113Z,21.73
2018-05-16T02:26:23.554Z,21.97
2018-05-16T02:28:51.837Z,22.03
2018-05-16T02:31:20.140Z,20.50
2018-05-16T02:33:47.649Z,21.83
2018-05-16T02:36:15.157Z,23.07
2018-05-16T02:38:42.669Z,21.97
2018-05-16T02:41:10.268Z,21.20
2018-05-16T02:43:37.786Z,21.10
2018-05-16T02:46:06.056Z,21.80
2018-05-16T02:48:33.578Z,21.33
2018-05-16T02:51:01.080Z,21.60
2018-05-16T02:53:28.600Z,21.37
2018-05-16T02:55:56.096Z,21.83
2018-05-16T02:58:25.123Z,21.70
2018-05-16T03:00:53.400Z,21.17
2018-05-16T03:03:20.924Z,22.67
2018-05-16T03:05:48.421Z,21.33
2018-05-16T03:08:15.937Z,20.97
2018-05-16T03:10:44.208Z,22.77
2018-05-16T03:13:11.817Z,22.67
2018-05-16T03:15:39.374Z,25.67
2018-05-16T03:18:06.896Z,21.80
2018-05-16T03:20:34.392Z,20.03
2018-05-16T03:23:01.900Z,22.20
2018-05-16T03:25:29.397Z,22.80
2018-05-16T03:27:57.681Z,22.93
2018-05-16T03:30:25.182Z,21.10
2018-05-16T03:32:52.696Z,21.83
2018-05-16T03:35:20.197Z,23.60
2018-05-16T03:37:47.715Z,23.37
2018-05-16T03:40:15.215Z,21.67
2018-05-16T03:42:42.728Z,21.80
2018-05-16T03:45:10.320Z,21.27
2018-05-16T03:47:37.841Z,22.10
2018-05-16T03:50:06.105Z,21.33
2018-05-16T03:52:34.383Z,22.07
2018-05-16T03:55:02.644Z,20.20
2018-05-16T03:57:42.013Z,20.93
2018-05-16T04:00:21.256Z,20.00
2018-05-16T04:03:00.542Z,21.53
2018-05-16T04:05:28.049Z,20.83
2018-05-16T04:07:55.561Z,21.30
2018-05-16T04:10:23.156Z,20.53
2018-05-16T04:12:50.666Z,19.63
2018-05-16T04:15:18.184Z,19.97
2018-05-16T04:17:45.685Z,18.30
2018-05-16T04:20:14.808Z,21.10
2018-05-16T04:22:43.069Z,19.50
2018-05-16T04:25:10.581Z,19.37
2018-05-16T04:27:38.093Z,20.30
2018-05-16T04:30:06.392Z,19.33
2018-05-16T04:32:33.959Z,19.10
2018-05-16T04:35:01.425Z,18.70
2018-05-16T04:37:28.926Z,18.20
2018-05-16T04:39:56.432Z,17.63
2018-05-16T04:42:23.938Z,21.10
2018-05-16T04:44:51.456Z,19.07
2018-05-16T04:47:18.952Z,19.47
2018-05-16T04:49:46.464Z,18.67
2018-05-16T04:52:13.968Z,18.73
2018-05-16T04:54:41.493Z,18.00
2018-05-16T04:57:08.992Z,18.17
2018-05-16T04:59:36.568Z,19.33
2018-05-16T05:02:04.025Z,18.57
2018-05-16T05:04:32.319Z,18.73
2018-05-16T05:06:59.880Z,17.80
2018-05-16T05:09:27.440Z,18.23
2018-05-16T05:11:54.932Z,20.23
2018-05-16T05:14:22.445Z,18.73
2018-05-16T05:16:50.708Z,18.00
2018-05-16T05:19:18.999Z,19.50
2018-05-16T05:21:47.255Z,18.17
2018-05-16T05:24:14.772Z,17.23
2018-05-16T05:26:42.273Z,17.97
2018-05-16T05:29:10.565Z,18.85
2018-05-16T05:31:38.832Z,18.80
2018-05-16T05:34:07.508Z,19.67
2018-05-16T05:36:35.328Z,17.90
2018-05-16T05:39:02.989Z,18.70
2018-05-16T05:41:30.510Z,18.13
2018-05-16T05:43:58.784Z,18.47
2018-05-16T05:46:27.040Z,17.43
2018-05-16T05:48:54.560Z,18.97
2018-05-16T05:51:22.058Z,18.63
2018-05-16T05:53:49.572Z,18.90
2018-05-16T05:56:17.069Z,18.63
2018-05-16T05:58:44.577Z,17.30
2018-05-16T06:01:12.084Z,19.80
2018-05-16T06:03:39.602Z,19.70
2018-05-16T06:06:07.111Z,17.87
2018-05-16T06:08:34.604Z,19.33
2018-05-16T06:11:02.148Z,18.93
2018-05-16T06:13:30.410Z,19.40
2018-05-16T06:15:58.697Z,17.13
2018-05-16T06:18:26.960Z,20.60
2018-05-16T06:20:55.241Z,17.40
2018-05-16T06:23:23.509Z,18.90
2018-05-16T06:25:51.789Z,18.63
2018-05-16T06:28:20.057Z,16.27
2018-05-16T06:30:47.580Z,16.83
2018-05-16T06:33:15.080Z,18.10
2018-05-16T06:35:43.356Z,19.67
2018-05-16T06:38:11.652Z,17.60
2018-05-16T06:40:39.213Z,16.67
2018-05-16T06:43:06.718Z,20.90
2018-05-16T06:45:34.247Z,18.00
2018-05-16T06:48:01.739Z,19.43
2018-05-16T06:50:29.251Z,24.33
2018-05-16T06:52:56.801Z,20.77
2018-05-16T06:55:24.320Z,22.80
2018-05-16T06:57:51.830Z,17.77
2018-05-16T07:00:19.348Z,19.30
2018-05-16T07:02:46.844Z,18.07
2018-05-16T07:05:14.369Z,18.83
2018-05-16T07:07:41.865Z,17.80
2018-05-16T07:10:09.385Z,16.80
2018-05-16T07:12:37.653Z,17.53
2018-05-16T07:15:05.944Z,15.33
2018-05-16T07:17:34.208Z,14.40
2018-05-16T07:20:01.721Z,15.70
2018-05-16T07:22:29.223Z,15.17
2018-05-16T07:24:56.745Z,14.10
2018-05-16T07:27:24.249Z,14.97
2018-05-16T07:29:52.537Z,15.90
2018-05-16T07:32:20.880Z,14.23
2018-05-16T07:34:48.341Z,13.10
2018-05-16T07:37:15.836Z,13.63
2018-05-16T07:39:43.348Z,12.70
2018-05-16T07:42:10.844Z,12.33
2018-05-16T07:44:39.128Z,13.33
2018-05-16T07:47:06.662Z,11.83
2018-05-16T07:49:34.174Z,12.40
2018-05-16T07:52:01.668Z,9.97
2018-05-16T07:54:29.189Z,11.50
2018-05-16T07:56:56.684Z,11.97
2018-05-16T07:59:24.201Z,12.20
2018-05-16T08:01:51.704Z,11.23
2018-05-16T08:04:19.220Z,11.50
2018-05-16T08:06:46.717Z,11.80
2018-05-16T08:09:14.224Z,11.73
2018-05-16T08:11:41.744Z,11.73
2018-05-16T08:14:10.008Z,11.20
2018-05-16T08:16:37.533Z,11.30
2018-05-16T08:19:05.037Z,11.83
2018-05-16T08:21:33.357Z,11.27
2018-05-16T08:24:00.860Z,11.50
2018-05-16T08:26:29.180Z,11.47
2018-05-16T08:28:56.685Z,12.20
2018-05-16T08:31:24.201Z,12.07
2018-05-16T08:33:52.040Z,11.70
2018-05-16T08:36:20.316Z,10.47
2018-05-16T08:38:48.586Z,10.90
2018-05-16T08:41:16.872Z,11.67
2018-05-16T08:43:45.140Z,10.37
2018-05-16T08:46:13.416Z,11.43
2018-05-16T08:48:41.681Z,12.53
2018-05-16T08:51:09.268Z,10.50
2018-05-16T08:53:36.771Z,11.10
2018-05-16T08:56:04.384Z,10.87
2018-05-16T08:58:31.896Z,11.90
2018-05-16T09:00:59.407Z,10.77
2018-05-16T09:03:26.907Z,10.20
2018-05-16T09:05:54.429Z,10.70
2018-05-16T09:08:21.980Z,10.40
2018-05-16T09:10:49.540Z,10.07
2018-05-16T09:13:17.040Z,10.03
2018-05-16T09:15:44.552Z,11.27
2018-05-16T09:18:12.049Z,9.23
2018-05-16T09:20:39.566Z,9.77
2018-05-16T09:23:07.072Z,9.40
2018-05-16T09:25:34.588Z,10.27
2018-05-16T09:28:02.103Z,10.00
2018-05-16T09:30:30.433Z,10.33
2018-05-16T09:32:57.963Z,9.40
2018-05-16T09:35:25.476Z,9.53
2018-05-16T09:37:52.973Z,9.30
2018-05-16T09:40:21.336Z,8.63
2018-05-16T09:42:48.828Z,6.07
2018-05-16T09:45:17.105Z,6.07
2018-05-16T09:47:44.592Z,5.50
2018-05-16T09:50:12.105Z,6.07
2018-05-16T09:52:40.356Z,5.80
2018-05-16T09:55:07.865Z,5.90
2018-05-16T09:57:35.433Z,6.27
2018-05-16T10:00:03.066Z,6.97
2018-05-16T10:02:30.636Z,5.93
2018-05-16T10:04:58.160Z,5.40
2018-05-16T10:07:25.756Z,5.60
2018-05-16T10:09:53.260Z,6.00
2018-05-16T10:12:20.908Z,6.47
2018-05-16T10:14:48.464Z,6.10
2018-05-16T10:17:16.068Z,5.20
2018-05-16T10:19:44.341Z,5.27
2018-05-16T10:22:11.862Z,5.53
2018-05-16T10:24:39.359Z,5.30
2018-05-16T10:27:07.857Z,5.53
2018-05-16T10:29:36.263Z,5.20
2018-05-16T10:32:03.890Z,4.53
2018-05-16T10:34:32.267Z,5.03
2018-05-16T10:36:59.788Z,4.97
2018-05-16T10:39:27.378Z,4.17
2018-05-16T10:41:54.946Z,3.70
2018-05-16T10:44:22.483Z,4.10
2018-05-16T10:46:50.242Z,3.77
2018-05-16T10:49:17.886Z,4.50
2018-05-16T10:51:45.412Z,3.73
2018-05-16T10:54:12.904Z,4.30
2018-05-16T10:56:40.412Z,4.50
2018-05-16T10:59:08.675Z,3.87
2018-05-16T11:01:36.957Z,4.20
2018-05-16T11:04:05.221Z,3.90
2018-05-16T11:06:32.732Z,3.90
2018-05-16T11:09:00.220Z,3.73
2018-05-16T11:11:27.809Z,3.57
2018-05-16T11:13:55.240Z,4.00
2018-05-16T11:16:22.748Z,4.00
2018-05-16T11:18:50.244Z,4.10
2018-05-16T11:21:17.795Z,3.80
2018-05-16T11:23:45.279Z,3.77
2018-05-16T11:26:12.793Z,4.30
2018-05-16T11:28:40.293Z,3.77
2018-05-16T11:31:07.805Z,4.00
2018-05-16T11:33:35.312Z,4.37
2018-05-16T11:36:02.824Z,4.23
2018-05-16T11:38:30.328Z,4.07
2018-05-16T11:40:57.836Z,4.13
2018-05-16T11:43:25.329Z,4.40
2018-05-16T11:45:52.842Z,3.90
2018-05-16T11:48:20.347Z,4.10
2018-05-16T11:50:47.862Z,3.60
2018-05-16T11:53:15.365Z,3.70
2018-05-16T11:55:42.993Z,3.73
2018-05-16T11:58:10.490Z,4.20
2018-05-16T12:00:38.251Z,3.80
2018-05-16T12:03:05.772Z,3.90
2018-05-16T12:05:33.272Z,3.77
2018-05-16T12:08:01.120Z,3.30
2018-05-16T12:10:29.384Z,4.97
2018-05-16T12:13:00.412Z,5.97
2018-05-16T12:15:27.925Z,9.10
2018-05-16T12:17:56.204Z,6.13
2018-05-16T12:20:24.465Z,5.67
2018-05-16T12:22:51.982Z,4.80
2018-05-16T12:25:19.481Z,3.77
2018-05-16T12:27:46.996Z,3.27
2018-05-16T12:30:14.493Z,3.47
2018-05-16T12:32:42.008Z,3.20
2018-05-16T12:35:09.508Z,3.00
2018-05-16T12:37:37.020Z,3.90
2018-05-16T12:40:04.516Z,3.00
2018-05-16T12:42:32.025Z,3.50
2018-05-16T12:44:59.534Z,3.50
2018-05-16T12:47:27.044Z,3.53
2018-05-16T12:49:54.544Z,3.23
2018-05-16T12:52:22.052Z,3.47
2018-05-16T12:54:49.541Z,3.90
2018-05-16T12:57:17.052Z,3.37
2018-05-16T12:59:45.313Z,3.73
2018-05-16T13:02:12.840Z,3.77
2018-05-16T13:04:40.336Z,4.67
2018-05-16T13:07:08.620Z,4.23
2018-05-16T13:09:36.888Z,4.40
2018-05-16T13:12:05.164Z,4.30
2018-05-16T13:14:33.429Z,4.33
2018-05-16T13:17:00.949Z,4.97
2018-05-16T13:19:28.441Z,5.43
2018-05-16T13:21:55.958Z,5.97
2018-05-16T13:24:23.452Z,6.43
2018-05-16T13:26:51.286Z,5.90
2018-05-16T13:29:19.501Z,6.40
2018-05-16T13:31:47.041Z,7.60
2018-05-16T13:34:14.536Z,6.70
2018-05-16T13:36:42.817Z,8.80
2018-05-16T13:39:11.109Z,8.10
2018-05-16T13:41:38.625Z,8.60
2018-05-16T13:44:06.124Z,8.90
2018-05-16T13:46:33.696Z,7.70
2018-05-16T13:49:01.150Z,8.17
2018-05-16T13:51:28.972Z,10.23
2018-05-16T13:53:56.568Z,9.13
2018-05-16T13:56:24.144Z,8.83
2018-05-16T13:58:51.668Z,9.03
2018-05-16T14:01:19.932Z,8.10
2018-05-16T14:03:48.221Z,9.40
2018-05-16T14:06:15.743Z,8.60
2018-05-16T14:08:43.293Z,8.80
2018-05-16T14:11:10.788Z,9.23
2018-05-16T14:13:39.073Z,9.60
2018-05-16T14:16:07.336Z,9.87
2018-05-16T14:18:35.617Z,9.40
2018-05-16T14:21:03.880Z,9.10
2018-05-16T14:23:31.396Z,10.47
2018-05-16T14:25:58.892Z,9.77
2018-05-16T14:28:26.413Z,8.50
2018-05-16T14:30:53.911Z,8.83
2018-05-16T14:33:21.425Z,9.03
2018-05-16T14:35:48.929Z,8.50
2018-05-16T14:38:16.445Z,9.13
2018-05-16T14:40:43.949Z,8.93
2018-05-16T14:43:12.233Z,9.23
2018-05-16T14:45:40.502Z,9.80
2018-05-16T14:48:08.783Z,9.30
2018-05-16T14:50:37.448Z,9.40
2018-05-16T14:53:04.965Z,8.97
2018-05-16T14:55:32.533Z,9.07
2018-05-16T14:58:00.760Z,7.90
2018-05-16T15:00:29.025Z,9.07
2018-05-16T15:02:56.544Z,8.30
2018-05-16T15:05:24.048Z,8.40
2018-05-16T15:07:52.330Z,8.00
2018-05-16T15:10:20.602Z,7.50
2018-05-16T15:12:48.889Z,8.77
2018-05-16T15:15:17.157Z,7.70
2018-05-16T15:17:45.439Z,8.67
2018-05-16T15:20:13.696Z,8.67
2018-05-16T15:22:41.293Z,8.70
2018-05-16T15:25:08.721Z,8.83
2018-05-16T15:27:37.008Z,9.10
2018-05-16T15:30:05.312Z,8.50
2018-05-16T15:32:32.837Z,8.87
2018-05-16T15:35:01.111Z,9.10
2018-05-16T15:37:29.395Z,8.93
2018-05-16T15:39:57.652Z,9.03
2018-05-16T15:42:25.168Z,9.10
2018-05-16T15:44:52.821Z,9.10
2018-05-16T15:47:20.337Z,9.00
2018-05-16T15:49:48.612Z,8.90
2018-05-16T15:52:16.896Z,9.27
2018-05-16T15:54:45.161Z,9.10
2018-05-16T15:57:12.693Z,9.90
2018-05-16T15:59:40.233Z,8.23
2018-05-16T16:02:07.719Z,10.10
2018-05-16T16:04:35.241Z,9.20
2018-05-16T16:07:02.742Z,9.80
2018-05-16T16:09:30.355Z,11.37
2018-05-16T16:11:57.857Z,10.67
2018-05-16T16:14:25.368Z,11.23
2018-05-16T16:16:52.868Z,10.63
2018-05-16T16:19:20.388Z,10.13
2018-05-16T16:21:47.893Z,10.70
2018-05-16T16:24:15.444Z,11.40
2018-05-16T16:26:42.949Z,12.13
2018-05-16T16:29:10.469Z,13.00
2018-05-16T16:31:37.964Z,12.53
2018-05-16T16:34:05.480Z,11.47
2018-05-16T16:36:32.984Z,12.10
2018-05-16T16:39:00.552Z,13.00
2018-05-16T16:41:28.785Z,12.40
2018-05-16T16:43:56.300Z,11.43
2018-05-16T16:46:23.805Z,12.87
2018-05-16T16:48:52.084Z,13.40
2018-05-16T16:51:20.356Z,13.60
2018-05-16T16:53:48.639Z,14.67
2018-05-16T16:56:16.908Z,13.90
2018-05-16T16:58:45.223Z,13.67
2018-05-16T17:01:12.733Z,12.73
2018-05-16T17:03:41.756Z,13.03
2018-05-16T17:06:10.025Z,13.37
2018-05-16T17:08:38.311Z,12.60
2018-05-16T17:11:05.821Z,11.67
2018-05-16T17:13:33.342Z,12.20
2018-05-16T17:16:00.844Z,12.90
2018-05-16T17:18:28.365Z,13.87
2018-05-16T17:20:55.873Z,14.37
2018-05-16T17:23:23.397Z,14.00
2018-05-16T17:25:50.906Z,14.90
2018-05-16T17:28:19.237Z,14.63
2018-05-16T17:30:46.740Z,15.43
2018-05-16T17:33:15.085Z,14.37
2018-05-16T17:35:45.030Z,13.60
2018-05-16T17:38:12.754Z,14.17
2018-05-16T17:40:40.266Z,13.07
2018-05-16T17:43:07.788Z,12.67
2018-05-16T17:45:35.288Z,12.67
2018-05-16T17:48:02.805Z,6.83
2018-05-16T17:50:30.305Z,5.47
2018-05-16T17:52:57.820Z,3.40
2018-05-16T17:55:25.311Z,4.13
2018-05-16T17:57:53.599Z,3.40
2018-05-16T18:00:21.096Z,6.70
2018-05-16T18:02:48.607Z,4.60
2018-05-16T18:05:16.121Z,4.80
2018-05-16T18:07:43.627Z,4.50
2018-05-16T18:10:11.139Z,4.30
2018-05-16T18:12:39.400Z,4.20
2018-05-16T18:15:18.895Z,4.57
2018-05-16T18:17:46.380Z,4.43
2018-05-16T18:20:13.881Z,5.47
2018-05-16T18:22:41.372Z,5.80
2018-05-16T18:25:08.888Z,9.90
2018-05-16T18:27:36.386Z,20.33
2018-05-16T18:30:03.905Z,17.77
2018-05-16T18:32:31.414Z,9.70
2018-05-16T18:34:58.934Z,4.00
2018-05-16T18:37:27.192Z,3.50
2018-05-16T18:39:54.806Z,3.43
2018-05-16T18:42:22.324Z,2.93
2018-05-16T18:44:50.516Z,3.40
2018-05-16T18:47:18.789Z,3.77
2018-05-16T18:49:47.060Z,6.10
2018-05-16T18:52:15.679Z,10.37
2018-05-16T18:54:43.195Z,7.13
2018-05-16T18:57:11.456Z,6.50
2018-05-16T18:59:38.966Z,7.00
2018-05-16T19:02:06.466Z,7.17
2018-05-16T19:04:33.972Z,6.10
2018-05-16T19:07:01.535Z,6.40
2018-05-16T19:09:29.060Z,6.67
2018-05-16T19:11:56.552Z,7.47
2018-05-16T19:14:24.104Z,7.40
2018-05-16T19:16:51.598Z,8.50
2018-05-16T19:19:19.120Z,8.60
2018-05-16T19:21:46.632Z,7.77
2018-05-16T19:24:14.126Z,9.30
2018-05-16T19:26:42.412Z,9.03
2018-05-16T19:29:09.977Z,9.77
2018-05-16T19:31:37.489Z,8.90
2018-05-16T19:34:04.984Z,10.17
2018-05-16T19:36:32.558Z,10.33
2018-05-16T19:39:00.072Z,11.93
2018-05-16T19:41:28.356Z,14.03
2018-05-16T19:43:56.628Z,12.33
2018-05-16T19:46:24.166Z,13.40
2018-05-16T19:48:51.660Z,12.47
2018-05-16T19:51:19.936Z,14.43
2018-05-16T19:53:48.235Z,13.43
2018-05-16T19:56:15.761Z,16.00
2018-05-16T19:58:44.028Z,16.50
2018-05-16T20:01:12.312Z,14.10
2018-05-16T20:03:40.572Z,16.87
2018-05-16T20:06:08.095Z,15.80
2018-05-16T20:08:35.601Z,16.70
2018-05-16T20:11:03.189Z,15.63
2018-05-16T20:13:30.744Z,16.60
2018-05-16T20:15:58.256Z,17.17
2018-05-16T20:18:25.777Z,18.20
2018-05-16T20:20:53.292Z,16.87
2018-05-16T20:23:21.557Z,16.30
2018-05-16T20:25:49.077Z,16.63
2018-05-16T20:28:16.580Z,16.23
2018-05-16T20:30:44.179Z,19.03
2018-05-16T20:33:11.685Z,18.30
2018-05-16T20:35:39.209Z,18.73
2018-05-16T20:38:06.707Z,17.70
2018-05-16T20:40:34.217Z,18.50
2018-05-16T20:43:01.715Z,17.83
2018-05-16T20:45:29.232Z,17.13
2018-05-16T20:47:56.737Z,18.67
2018-05-16T20:50:24.340Z,17.20
2018-05-16T20:52:51.848Z,16.87
2018-05-16T20:55:19.367Z,17.93
2018-05-16T20:57:46.921Z,18.40
2018-05-16T21:00:14.441Z,17.90
2018-05-16T21:02:41.948Z,19.43
2018-05-16T21:05:09.505Z,16.83
2018-05-16T21:07:37.735Z,17.20
2018-05-16T21:10:05.228Z,19.13
2018-05-16T21:12:32.797Z,17.47
2018-05-16T21:15:00.340Z,17.40
2018-05-16T21:17:27.857Z,17.50
2018-05-16T21:19:56.859Z,17.80
2018-05-16T21:22:24.374Z,18.40
2018-05-16T21:24:51.912Z,19.00
2018-05-16T21:27:19.433Z,16.20
2018-05-16T21:29:46.928Z,16.13
2018-05-16T21:32:14.445Z,17.30
2018-05-16T21:34:42.770Z,16.97
2018-05-16T21:37:10.282Z,16.30
2018-05-16T21:39:38.543Z,17.47
2018-05-16T21:42:06.052Z,17.63
2018-05-16T21:44:33.551Z,17.70
2018-05-16T21:47:01.073Z,16.83
2018-05-16T21:49:28.573Z,18.30
2018-05-16T21:51:56.096Z,17.10
2018-05-16T21:54:23.588Z,17.27
2018-05-16T21:56:51.105Z,16.30
2018-05-16T21:59:18.609Z,17.13
2018-05-16T22:01:46.268Z,15.60
2018-05-16T22:04:13.767Z,16.17
2018-05-16T22:06:42.048Z,15.30
2018-05-16T22:09:09.619Z,17.23
2018-05-16T22:11:37.179Z,17.27
2018-05-16T22:14:04.680Z,16.77
2018-05-16T22:16:32.188Z,16.80
2018-05-16T22:18:59.688Z,17.27
2018-05-16T22:21:27.201Z,16.57
2018-05-16T22:23:54.761Z,16.20
2018-05-16T22:26:22.325Z,15.40
2018-05-16T22:28:49.820Z,17.40
2018-05-16T22:31:22.920Z,15.23
2018-05-16T22:33:56.212Z,16.27
2018-05-16T22:36:29.553Z,16.90
2018-05-16T22:39:02.923Z,17.20
2018-05-16T22:41:36.232Z,15.93
2018-05-16T22:44:10.253Z,16.83
2018-05-16T22:46:37.771Z,17.10
2018-05-16T22:49:05.264Z,16.70
2018-05-16T22:51:33.548Z,17.03
2018-05-16T22:54:01.048Z,17.70
2018-05-16T22:56:28.563Z,16.27
2018-05-16T22:58:56.057Z,15.80
2018-05-16T23:01:23.585Z,15.27
2018-05-16T23:03:51.080Z,17.10
2018-05-16T23:06:18.594Z,16.77
2018-05-16T23:08:46.096Z,17.03
2018-05-16T23:11:13.612Z,15.60
2018-05-16T23:13:41.109Z,14.50
2018-05-16T23:16:08.690Z,15.23
2018-05-16T23:18:36.145Z,16.60
2018-05-16T23:21:03.647Z,15.43
2018-05-16T23:23:31.164Z,15.63
2018-05-16T23:25:58.656Z,17.60
2018-05-16T23:28:26.936Z,16.80
2018-05-16T23:30:54.496Z,15.90
2018-05-16T23:33:22.752Z,17.63
2018-05-16T23:35:51.013Z,16.23
2018-05-16T23:38:19.301Z,18.00
2018-05-16T23:40:47.572Z,17.57
2018-05-16T23:43:15.161Z,17.17
2018-05-16T23:45:42.760Z,15.27
2018-05-16T23:48:10.376Z,15.97
2018-05-16T23:50:37.872Z,16.87
2018-05-16T23:53:05.389Z,17.57
2018-05-16T23:55:32.892Z,16.57
2018-05-16T23:58:00.417Z,17.70
